createdAt,value
2023-05-06T00:00:59.130Z,16.40
2023-05-06T00:01:59.168Z,23.30
2023-05-06T00:02:59.201Z,18.10
2023-05-06T00:03:59.195Z,18.10
2023-05-06T00:04:59.097Z,21.70
2023-05-06T00:05:59.102Z,19.40
2023-05-06T00:06:59.071Z,20.40
2023-05-06T00:07:59.101Z,17.90
2023-05-06T00:08:59.051Z,18.70
2023-05-06T00:09:59.024Z,20.10
2023-05-06T00:10:59.052Z,17.60
2023-05-06T00:11:58.999Z,22.30
2023-05-06T00:12:59.150Z,18.90
2023-05-06T00:13:58.988Z,18.70
2023-05-06T00:14:58.975Z,17.40
2023-05-06T00:15:59.007Z,17.60
2023-05-06T00:16:58.967Z,19.80
2023-05-06T00:17:58.948Z,20.80
2023-05-06T00:18:58.940Z,18.30
2023-05-06T00:19:59.002Z,18.40
2023-05-06T00:20:58.926Z,16.80
2023-05-06T00:21:58.884Z,15.80
2023-05-06T00:22:58.880Z,17.30
2023-05-06T00:23:58.905Z,16.20
2023-05-06T00:24:58.934Z,16.50
2023-05-06T00:25:58.841Z,16.80
2023-05-06T00:26:58.851Z,15.60
2023-05-06T00:27:58.895Z,18.20
2023-05-06T00:28:58.846Z,16.90
2023-05-06T00:29:58.841Z,15.90
2023-05-06T00:30:58.805Z,16.40
2023-05-06T00:31:58.843Z,17.60
2023-05-06T00:32:58.819Z,16.40
2023-05-06T00:33:58.764Z,16.10
2023-05-06T00:34:58.801Z,16.70
2023-05-06T00:35:58.755Z,17.20
2023-05-06T00:36:58.737Z,16.20
2023-05-06T00:37:58.745Z,19.10
2023-05-06T00:38:58.733Z,17.90
2023-05-06T00:39:58.687Z,17.70
2023-05-06T00:40:58.693Z,18.60
2023-05-06T00:41:58.683Z,21.60
2023-05-06T00:42:58.692Z,17.90
2023-05-06T00:43:58.666Z,21.60
2023-05-06T00:44:58.641Z,17.60
2023-05-06T00:45:58.637Z,17.90
2023-05-06T00:46:58.625Z,18.20
2023-05-06T00:47:58.687Z,17.00
2023-05-06T00:48:58.625Z,17.10
2023-05-06T00:49:58.662Z,18.40
2023-05-06T00:50:58.586Z,18.10
2023-05-06T00:51:58.557Z,15.70
2023-05-06T00:52:58.553Z,20.20
2023-05-06T00:53:58.586Z,17.80
2023-05-06T00:54:58.554Z,18.00
2023-05-06T00:55:58.532Z,17.40
2023-05-06T00:56:58.572Z,17.50
2023-05-06T00:57:58.491Z,19.40
2023-05-06T00:58:58.506Z,21.70
2023-05-06T00:59:58.471Z,18.90
2023-05-06T01:00:58.493Z,19.50
2023-05-06T01:01:58.445Z,19.80
2023-05-06T01:02:58.603Z,20.80
2023-05-06T01:03:58.730Z,17.90
2023-05-06T01:04:58.479Z,16.60
2023-05-06T01:05:58.412Z,18.00
2023-05-06T01:06:58.408Z,18.10
2023-05-06T01:07:58.405Z,17.20
2023-05-06T01:08:58.364Z,17.60
2023-05-06T01:09:58.360Z,20.30
2023-05-06T01:10:58.383Z,17.80
2023-05-06T01:11:58.378Z,17.50
2023-05-06T01:12:58.429Z,14.20
2023-05-06T01:13:58.333Z,17.30
2023-05-06T01:14:58.309Z,21.60
2023-05-06T01:15:58.295Z,17.60
2023-05-06T01:16:58.430Z,16.10
2023-05-06T01:17:58.316Z,17.40
2023-05-06T01:18:58.302Z,17.40
2023-05-06T01:19:58.259Z,15.30
2023-05-06T01:20:58.296Z,15.80
2023-05-06T01:21:58.234Z,16.40
2023-05-06T01:22:58.227Z,20.00
2023-05-06T01:23:58.616Z,22.60
2023-05-06T01:24:58.270Z,18.30
2023-05-06T01:25:58.203Z,16.90
2023-05-06T01:26:58.179Z,19.90
2023-05-06T01:27:58.168Z,16.80
2023-05-06T01:28:58.185Z,15.60
2023-05-06T01:29:58.148Z,15.00
2023-05-06T01:30:58.189Z,16.10
2023-05-06T01:31:58.126Z,16.20
2023-05-06T01:32:58.150Z,15.60
2023-05-06T01:33:58.104Z,16.20
2023-05-06T01:34:58.109Z,15.40
2023-05-06T01:35:58.106Z,17.50
2023-05-06T01:36:58.100Z,18.50
2023-05-06T01:37:58.054Z,20.80
2023-05-06T01:38:58.087Z,17.50
2023-05-06T01:39:58.070Z,16.10
2023-05-06T01:40:58.032Z,16.50
2023-05-06T01:41:58.024Z,18.40
2023-05-06T01:42:58.100Z,15.70
2023-05-06T01:43:58.007Z,16.30
2023-05-06T01:44:57.998Z,16.60
2023-05-06T01:45:57.981Z,16.00
2023-05-06T01:46:57.983Z,17.90
2023-05-06T01:47:57.993Z,20.10
2023-05-06T01:48:58.087Z,15.60
2023-05-06T01:49:57.949Z,18.40
2023-05-06T01:50:57.984Z,16.80
2023-05-06T01:51:57.969Z,15.30
2023-05-06T01:52:57.910Z,15.80
2023-05-06T01:53:57.897Z,16.10
2023-05-06T01:54:57.881Z,13.90
2023-05-06T01:55:57.854Z,15.20
2023-05-06T01:56:57.861Z,15.20
2023-05-06T01:57:57.873Z,16.20
2023-05-06T01:58:59.385Z,14.30
2023-05-06T01:59:57.817Z,17.30
2023-05-06T02:00:57.798Z,16.30
2023-05-06T02:01:57.817Z,15.00
2023-05-06T02:02:57.905Z,15.30
2023-05-06T02:03:57.882Z,15.80
2023-05-06T02:04:57.794Z,17.20
2023-05-06T02:05:57.748Z,14.90
2023-05-06T02:06:57.762Z,14.70
2023-05-06T02:07:57.750Z,15.10
2023-05-06T02:08:57.745Z,14.80
2023-05-06T02:09:57.706Z,15.50
2023-05-06T02:10:57.695Z,14.90
2023-05-06T02:11:57.706Z,12.80
2023-05-06T02:12:57.799Z,12.30
2023-05-06T02:13:57.655Z,12.50
2023-05-06T02:14:57.674Z,13.10
2023-05-06T02:15:57.715Z,15.40
2023-05-06T02:16:57.642Z,14.40
2023-05-06T02:17:57.671Z,14.10
2023-05-06T02:18:57.601Z,13.40
2023-05-06T02:19:57.598Z,13.80
2023-05-06T02:20:57.587Z,13.50
2023-05-06T02:21:57.652Z,13.00
2023-05-06T02:22:57.552Z,13.60
2023-05-06T02:23:57.625Z,12.60
2023-05-06T02:24:57.533Z,14.60
2023-05-06T02:25:57.534Z,14.00
2023-05-06T02:26:57.528Z,14.00
2023-05-06T02:27:57.502Z,14.00
2023-05-06T02:28:57.501Z,14.60
2023-05-06T02:29:57.487Z,12.80
2023-05-06T02:30:57.494Z,12.40
2023-05-06T02:31:57.592Z,14.00
2023-05-06T02:32:57.546Z,14.60
2023-05-06T02:33:57.444Z,14.50
2023-05-06T02:34:57.443Z,16.00
2023-05-06T02:35:57.450Z,17.70
2023-05-06T02:36:57.435Z,19.70
2023-05-06T02:37:57.396Z,14.80
2023-05-06T02:38:57.377Z,14.80
2023-05-06T02:39:57.361Z,15.10
2023-05-06T02:40:57.381Z,15.40
2023-05-06T02:41:57.356Z,16.00
2023-05-06T02:42:57.388Z,16.30
2023-05-06T02:43:57.362Z,18.80
2023-05-06T02:44:57.325Z,15.70
2023-05-06T02:45:57.384Z,18.40
2023-05-06T02:46:57.296Z,16.80
2023-05-06T02:47:57.321Z,17.40
2023-05-06T02:48:57.264Z,14.30
2023-05-06T02:49:57.277Z,14.60
2023-05-06T02:50:57.368Z,14.90
2023-05-06T02:51:57.261Z,16.80
2023-05-06T02:52:57.226Z,16.00
2023-05-06T02:53:57.218Z,16.40
2023-05-06T02:54:57.205Z,15.00
2023-05-06T02:55:57.198Z,15.60
2023-05-06T02:56:57.185Z,15.30
2023-05-06T02:57:57.181Z,14.40
2023-05-06T02:58:57.166Z,13.80
2023-05-06T02:59:57.158Z,15.00
2023-05-06T03:00:57.148Z,13.30
2023-05-06T03:01:57.134Z,12.60
2023-05-06T03:02:57.148Z,13.90
2023-05-06T03:03:57.186Z,16.20
2023-05-06T03:04:57.096Z,15.40
2023-05-06T03:05:57.087Z,13.20
2023-05-06T03:06:57.066Z,13.20
2023-05-06T03:07:57.082Z,11.50
2023-05-06T03:08:57.414Z,12.00
2023-05-06T03:09:57.068Z,14.70
2023-05-06T03:10:57.031Z,16.30
2023-05-06T03:11:57.038Z,14.80
2023-05-06T03:12:57.034Z,12.90
2023-05-06T03:13:57.004Z,12.30
2023-05-06T03:14:56.999Z,12.30
2023-05-06T03:15:56.990Z,14.80
2023-05-06T03:16:57.038Z,15.40
2023-05-06T03:17:57.013Z,11.90
2023-05-06T03:18:56.951Z,11.00
2023-05-06T03:19:56.947Z,12.60
2023-05-06T03:20:56.963Z,11.70
2023-05-06T03:21:56.927Z,13.50
2023-05-06T03:22:56.963Z,15.30
2023-05-06T03:23:56.892Z,16.50
2023-05-06T03:24:56.898Z,16.50
2023-05-06T03:25:56.864Z,18.80
2023-05-06T03:26:56.950Z,19.40
2023-05-06T03:27:56.849Z,17.60
2023-05-06T03:28:56.845Z,17.70
2023-05-06T03:29:56.829Z,18.70
2023-05-06T03:30:56.812Z,18.30
2023-05-06T03:31:56.925Z,15.80
2023-05-06T03:32:56.872Z,15.00
2023-05-06T03:33:56.782Z,17.20
2023-05-06T03:34:56.776Z,17.70
2023-05-06T03:35:56.802Z,19.40
2023-05-06T03:36:56.750Z,16.10
2023-05-06T03:37:56.743Z,17.10
2023-05-06T03:38:56.748Z,16.50
2023-05-06T03:39:56.724Z,16.60
2023-05-06T03:40:56.723Z,16.90
2023-05-06T03:41:56.716Z,17.00
2023-05-06T03:42:56.675Z,16.50
2023-05-06T03:43:56.679Z,15.40
2023-05-06T03:44:56.671Z,16.10
2023-05-06T03:45:56.709Z,19.20
2023-05-06T03:46:56.644Z,20.80
2023-05-06T03:47:58.478Z,16.70
2023-05-06T03:48:56.643Z,19.30
2023-05-06T03:49:56.602Z,16.30
2023-05-06T03:50:56.596Z,16.90
2023-05-06T03:51:56.568Z,16.80
2023-05-06T03:52:56.591Z,16.50
2023-05-06T03:53:56.556Z,17.10
2023-05-06T03:54:56.547Z,17.80
2023-05-06T03:55:56.558Z,16.60
2023-05-06T03:56:56.533Z,17.70
2023-05-06T03:57:56.515Z,16.60
2023-05-06T03:58:56.519Z,15.50
2023-05-06T03:59:56.544Z,16.30
2023-05-06T04:00:56.501Z,14.60
2023-05-06T04:01:56.589Z,14.20
2023-05-06T04:02:56.493Z,15.00
2023-05-06T04:03:56.497Z,17.50
2023-05-06T04:04:56.467Z,14.90
2023-05-06T04:05:56.422Z,15.40
2023-05-06T04:06:56.422Z,14.20
2023-05-06T04:07:56.400Z,13.70
2023-05-06T04:08:56.406Z,14.40
2023-05-06T04:09:56.378Z,15.60
2023-05-06T04:10:56.369Z,15.60
2023-05-06T04:11:56.346Z,14.10
2023-05-06T04:12:56.415Z,14.60
2023-05-06T04:13:56.374Z,13.70
2023-05-06T04:14:56.376Z,13.50
2023-05-06T04:15:56.327Z,14.00
2023-05-06T04:16:56.308Z,14.30
2023-05-06T04:17:56.299Z,14.20
2023-05-06T04:18:56.286Z,14.70
2023-05-06T04:19:56.307Z,14.50
2023-05-06T04:20:56.262Z,14.40
2023-05-06T04:21:56.237Z,13.40
2023-05-06T04:22:56.243Z,17.90
2023-05-06T04:23:56.236Z,18.20
2023-05-06T04:24:56.252Z,15.20
2023-05-06T04:25:56.197Z,14.10
2023-05-06T04:26:56.196Z,15.20
2023-05-06T04:27:56.177Z,14.00
2023-05-06T04:28:56.219Z,14.10
2023-05-06T04:29:56.149Z,17.10
2023-05-06T04:30:56.137Z,13.40
2023-05-06T04:31:56.167Z,15.50
2023-05-06T04:32:56.191Z,13.40
2023-05-06T04:33:56.111Z,16.00
2023-05-06T04:34:56.103Z,14.10
2023-05-06T04:35:56.091Z,13.40
2023-05-06T04:36:56.123Z,13.90
2023-05-06T04:37:56.109Z,14.50
2023-05-06T04:38:56.059Z,14.00
2023-05-06T04:39:56.041Z,16.10
2023-05-06T04:40:56.039Z,15.70
2023-05-06T04:41:56.112Z,15.80
2023-05-06T04:42:56.021Z,17.50
2023-05-06T04:43:56.004Z,19.80
2023-05-06T04:44:56.089Z,20.40
2023-05-06T04:45:55.990Z,16.90
2023-05-06T04:46:55.996Z,17.60
2023-05-06T04:47:56.006Z,17.10
2023-05-06T04:48:55.953Z,15.10
2023-05-06T04:49:56.001Z,15.10
2023-05-06T04:50:55.926Z,17.30
2023-05-06T04:51:56.072Z,15.30
2023-05-06T04:52:55.920Z,15.90
2023-05-06T04:53:55.892Z,14.40
2023-05-06T04:54:55.882Z,14.00
2023-05-06T04:55:55.876Z,15.40
2023-05-06T04:56:55.875Z,14.90
2023-05-06T04:57:55.859Z,15.60
2023-05-06T04:58:55.854Z,14.70
2023-05-06T04:59:55.840Z,13.30
2023-05-06T05:00:55.871Z,15.60
2023-05-06T05:01:55.819Z,13.80
2023-05-06T05:02:55.934Z,15.50
2023-05-06T05:03:55.780Z,14.00
2023-05-06T05:04:55.807Z,14.70
2023-05-06T05:05:55.771Z,14.60
2023-05-06T05:06:55.747Z,15.80
2023-05-06T05:07:55.781Z,14.30
2023-05-06T05:08:55.744Z,15.20
2023-05-06T05:09:55.735Z,13.90
2023-05-06T05:10:55.728Z,14.00
2023-05-06T05:11:55.699Z,14.00
2023-05-06T05:12:55.727Z,13.70
2023-05-06T05:13:56.895Z,13.10
2023-05-06T05:14:55.683Z,15.30
2023-05-06T05:15:55.668Z,13.50
2023-05-06T05:16:55.676Z,13.40
2023-05-06T05:17:55.722Z,14.60
2023-05-06T05:18:55.655Z,13.30
2023-05-06T05:19:55.614Z,14.50
2023-05-06T05:20:55.609Z,13.80
2023-05-06T05:21:55.574Z,13.80
2023-05-06T05:22:55.578Z,14.30
2023-05-06T05:23:55.582Z,15.40
2023-05-06T05:24:55.546Z,16.50
2023-05-06T05:25:55.539Z,14.30
2023-05-06T05:26:55.527Z,16.90
2023-05-06T05:27:55.519Z,13.80
2023-05-06T05:28:55.518Z,14.00
2023-05-06T05:29:55.500Z,13.90
2023-05-06T05:30:55.542Z,13.80
2023-05-06T05:31:55.462Z,16.00
2023-05-06T05:32:55.592Z,14.70
2023-05-06T05:33:55.525Z,14.40
2023-05-06T05:34:55.540Z,17.30
2023-05-06T05:35:55.427Z,16.50
2023-05-06T05:36:55.453Z,13.40
2023-05-06T05:37:55.404Z,13.80
2023-05-06T05:38:55.416Z,13.30
2023-05-06T05:39:55.483Z,14.10
2023-05-06T05:40:55.425Z,12.60
2023-05-06T05:41:55.362Z,12.20
2023-05-06T05:42:55.365Z,14.20
2023-05-06T05:43:55.762Z,12.60
2023-05-06T05:44:55.333Z,13.90
2023-05-06T05:45:55.374Z,12.70
2023-05-06T05:46:55.323Z,11.50
2023-05-06T05:47:55.433Z,11.30
2023-05-06T05:48:55.284Z,13.40
2023-05-06T05:49:55.272Z,12.10
2023-05-06T05:50:55.265Z,11.20
2023-05-06T05:51:55.279Z,11.40
2023-05-06T05:52:55.264Z,10.80
2023-05-06T05:53:55.287Z,11.50
2023-05-06T05:54:55.223Z,10.90
2023-05-06T05:55:55.205Z,11.00
2023-05-06T05:56:55.214Z,11.70
2023-05-06T05:57:55.187Z,11.10
2023-05-06T05:58:55.176Z,11.50
2023-05-06T05:59:55.161Z,11.60
2023-05-06T06:00:55.179Z,10.90
2023-05-06T06:01:55.168Z,11.40
2023-05-06T06:02:55.239Z,11.10
2023-05-06T06:03:55.258Z,11.90
2023-05-06T06:04:55.185Z,13.60
2023-05-06T06:05:55.099Z,11.00
2023-05-06T06:06:55.147Z,9.00
2023-05-06T06:07:55.069Z,9.80
2023-05-06T06:08:55.056Z,10.50
2023-05-06T06:09:55.049Z,9.40
2023-05-06T06:10:55.058Z,10.00
2023-05-06T06:11:55.044Z,12.40
2023-05-06T06:12:55.045Z,8.90
2023-05-06T06:13:55.004Z,8.70
2023-05-06T06:14:55.001Z,9.00
2023-05-06T06:15:54.985Z,9.80
2023-05-06T06:16:54.974Z,8.90
2023-05-06T06:17:55.030Z,8.30
2023-05-06T06:18:54.954Z,8.50
2023-05-06T06:19:54.946Z,8.20
2023-05-06T06:20:54.949Z,8.20
2023-05-06T06:21:54.913Z,8.20
2023-05-06T06:22:54.918Z,8.30
2023-05-06T06:23:54.930Z,7.40
2023-05-06T06:24:54.899Z,7.90
2023-05-06T06:25:54.900Z,9.00
2023-05-06T06:26:54.854Z,8.00
2023-05-06T06:27:54.863Z,7.10
2023-05-06T06:28:54.844Z,7.40
2023-05-06T06:29:54.851Z,8.10
2023-05-06T06:30:54.828Z,7.30
2023-05-06T06:31:54.837Z,7.40
2023-05-06T06:32:54.923Z,9.30
2023-05-06T06:33:54.791Z,7.10
2023-05-06T06:34:54.790Z,8.10
2023-05-06T06:35:54.798Z,9.30
2023-05-06T06:36:54.749Z,7.00
2023-05-06T06:37:54.739Z,6.90
2023-05-06T06:38:54.775Z,7.80
2023-05-06T06:39:54.714Z,7.90
2023-05-06T06:40:54.705Z,7.70
2023-05-06T06:41:54.695Z,6.60
2023-05-06T06:42:54.795Z,7.10
2023-05-06T06:43:54.694Z,6.90
2023-05-06T06:44:54.663Z,6.80
2023-05-06T06:45:54.673Z,6.10
2023-05-06T06:46:54.636Z,6.20
2023-05-06T06:47:54.741Z,5.60
2023-05-06T06:48:54.747Z,6.00
2023-05-06T06:49:54.611Z,6.40
2023-05-06T06:50:54.619Z,6.00
2023-05-06T06:51:54.605Z,7.00
2023-05-06T06:52:54.640Z,5.20
2023-05-06T06:53:54.589Z,6.00
2023-05-06T06:54:54.545Z,6.90
2023-05-06T06:55:54.581Z,5.50
2023-05-06T06:56:54.660Z,5.10
2023-05-06T06:57:54.526Z,6.70
2023-05-06T06:58:54.514Z,6.50
2023-05-06T06:59:54.513Z,5.80
2023-05-06T07:00:54.614Z,4.80
2023-05-06T07:01:54.555Z,6.90
2023-05-06T07:02:54.531Z,6.90
2023-05-06T07:03:54.473Z,5.00
2023-05-06T07:04:54.444Z,4.60
2023-05-06T07:05:54.438Z,4.50
2023-05-06T07:06:54.484Z,5.70
2023-05-06T07:07:54.436Z,5.30
2023-05-06T07:08:54.449Z,4.90
2023-05-06T07:09:54.380Z,4.90
2023-05-06T07:10:54.374Z,7.20
2023-05-06T07:11:54.377Z,6.40
2023-05-06T07:12:54.469Z,5.60
2023-05-06T07:13:54.350Z,4.30
2023-05-06T07:14:54.345Z,5.40
2023-05-06T07:15:54.324Z,5.50
2023-05-06T07:16:54.349Z,5.80
2023-05-06T07:17:54.388Z,3.80
2023-05-06T07:18:54.308Z,4.60
2023-05-06T07:19:54.303Z,4.30
2023-05-06T07:20:54.284Z,4.10
2023-05-06T07:21:54.260Z,4.80
2023-05-06T07:22:54.276Z,3.40
2023-05-06T07:23:54.234Z,4.80
2023-05-06T07:24:54.254Z,3.90
2023-05-06T07:25:54.266Z,5.80
2023-05-06T07:26:54.221Z,6.30
2023-05-06T07:27:54.239Z,6.80
2023-05-06T07:28:54.185Z,4.20
2023-05-06T07:29:54.184Z,4.10
2023-05-06T07:30:54.196Z,5.40
2023-05-06T07:31:54.144Z,4.60
2023-05-06T07:32:54.195Z,4.80
2023-05-06T07:33:54.143Z,7.30
2023-05-06T07:34:54.131Z,5.10
2023-05-06T07:35:54.114Z,7.80
2023-05-06T07:36:54.092Z,5.00
2023-05-06T07:37:54.121Z,4.80
2023-05-06T07:38:54.077Z,4.60
2023-05-06T07:39:54.076Z,5.20
2023-05-06T07:40:54.058Z,6.50
2023-05-06T07:41:54.042Z,7.70
2023-05-06T07:42:54.031Z,4.70
2023-05-06T07:43:54.029Z,4.60
2023-05-06T07:44:54.090Z,6.40
2023-05-06T07:45:54.041Z,4.20
2023-05-06T07:46:54.096Z,5.70
2023-05-06T07:47:54.103Z,8.00
2023-05-06T07:48:53.977Z,5.10
2023-05-06T07:49:53.951Z,5.50
2023-05-06T07:50:53.944Z,7.00
2023-05-06T07:51:53.936Z,5.10
2023-05-06T07:52:53.922Z,4.80
2023-05-06T07:53:53.956Z,3.20
2023-05-06T07:54:53.936Z,6.50
2023-05-06T07:55:53.911Z,4.80
2023-05-06T07:56:54.011Z,3.50
2023-05-06T07:57:53.869Z,4.50
2023-05-06T07:58:53.885Z,4.30
2023-05-06T07:59:53.865Z,4.80
2023-05-06T08:00:53.836Z,5.70
2023-05-06T08:01:53.820Z,7.30
2023-05-06T08:02:53.908Z,3.90
2023-05-06T08:03:53.880Z,3.10
2023-05-06T08:04:53.913Z,2.70
2023-05-06T08:05:53.788Z,4.10
2023-05-06T08:06:53.771Z,4.80
2023-05-06T08:07:53.778Z,3.30
2023-05-06T08:08:53.759Z,4.60
2023-05-06T08:09:53.740Z,3.10
2023-05-06T08:10:53.733Z,3.10
2023-05-06T08:11:53.748Z,4.20
2023-05-06T08:12:53.797Z,7.00
2023-05-06T08:13:53.696Z,3.20
2023-05-06T08:14:53.694Z,3.40
2023-05-06T08:15:53.706Z,4.20
2023-05-06T08:16:53.718Z,3.00
2023-05-06T08:17:53.722Z,3.20
2023-05-06T08:18:53.654Z,4.10
2023-05-06T08:19:53.640Z,3.40
2023-05-06T08:20:53.733Z,4.10
2023-05-06T08:21:53.628Z,4.90
2023-05-06T08:22:53.612Z,3.10
2023-05-06T08:23:53.587Z,3.20
2023-05-06T08:24:53.593Z,4.90
2023-05-06T08:25:53.654Z,2.90
2023-05-06T08:26:53.569Z,1.90
2023-05-06T08:27:53.545Z,3.90
2023-05-06T08:28:53.543Z,2.00
2023-05-06T08:29:53.577Z,2.40
2023-05-06T08:30:53.534Z,2.00
2023-05-06T08:31:53.596Z,1.40
2023-05-06T08:32:53.530Z,1.30
2023-05-06T08:33:54.791Z,2.20
2023-05-06T08:34:53.586Z,4.30
2023-05-06T08:35:53.474Z,2.50
2023-05-06T08:36:53.475Z,3.70
2023-05-06T08:37:53.464Z,3.00
2023-05-06T08:38:53.444Z,2.60
2023-05-06T08:39:53.459Z,3.20
2023-05-06T08:40:53.443Z,3.00
2023-05-06T08:41:53.420Z,3.20
2023-05-06T08:42:53.407Z,3.60
2023-05-06T08:43:53.393Z,2.90
2023-05-06T08:44:53.438Z,4.60
2023-05-06T08:45:53.409Z,3.10
2023-05-06T08:46:53.383Z,3.00
2023-05-06T08:47:53.383Z,4.00
2023-05-06T08:48:53.354Z,2.20
2023-05-06T08:49:53.340Z,3.80
2023-05-06T08:50:53.419Z,2.30
2023-05-06T08:51:53.308Z,2.30
2023-05-06T08:52:53.330Z,4.70
2023-05-06T08:53:53.288Z,2.60
2023-05-06T08:54:53.273Z,2.70
2023-05-06T08:55:53.347Z,4.40
2023-05-06T08:56:53.257Z,2.80
2023-05-06T08:57:53.246Z,3.40
2023-05-06T08:58:53.264Z,3.00
2023-05-06T08:59:53.230Z,4.40
2023-05-06T09:00:53.236Z,6.50
2023-05-06T09:01:53.211Z,3.00
2023-05-06T09:02:53.373Z,3.50
2023-05-06T09:03:53.239Z,4.60
2023-05-06T09:04:53.186Z,2.60
2023-05-06T09:05:53.152Z,2.60
2023-05-06T09:06:53.176Z,3.60
2023-05-06T09:07:53.466Z,3.10
2023-05-06T09:08:53.136Z,3.80
2023-05-06T09:09:53.187Z,1.70
2023-05-06T09:10:53.112Z,1.70
2023-05-06T09:11:53.138Z,1.50
2023-05-06T09:12:53.163Z,1.60
2023-05-06T09:13:53.078Z,3.30
2023-05-06T09:14:53.076Z,2.00
2023-05-06T09:15:53.052Z,2.10
2023-05-06T09:16:53.304Z,1.80
2023-05-06T09:17:53.115Z,3.10
2023-05-06T09:18:53.025Z,1.50
2023-05-06T09:19:53.015Z,3.50
2023-05-06T09:20:53.004Z,2.20
2023-05-06T09:21:53.013Z,2.40
2023-05-06T09:22:53.037Z,2.00
2023-05-06T09:23:52.988Z,2.80
2023-05-06T09:24:52.977Z,4.40
2023-05-06T09:25:52.982Z,2.90
2023-05-06T09:26:52.986Z,1.50
2023-05-06T09:27:52.933Z,3.10
2023-05-06T09:28:52.937Z,3.30
2023-05-06T09:29:52.933Z,2.50
2023-05-06T09:30:52.924Z,2.90
2023-05-06T09:31:52.890Z,2.00
2023-05-06T09:32:52.931Z,1.00
2023-05-06T09:33:52.998Z,2.30
2023-05-06T09:34:52.916Z,2.90
2023-05-06T09:35:52.872Z,1.30
2023-05-06T09:36:52.865Z,2.10
2023-05-06T09:37:52.865Z,3.00
2023-05-06T09:38:52.832Z,1.50
2023-05-06T09:39:52.839Z,0.80
2023-05-06T09:40:52.836Z,2.00
2023-05-06T09:41:52.812Z,1.80
2023-05-06T09:42:52.791Z,2.00
2023-05-06T09:43:52.855Z,3.20
2023-05-06T09:44:52.779Z,1.40
2023-05-06T09:45:52.816Z,2.10
2023-05-06T09:46:52.783Z,2.20
2023-05-06T09:47:52.764Z,2.10
2023-05-06T09:48:52.767Z,3.20
2023-05-06T09:49:52.733Z,1.70
2023-05-06T09:50:52.719Z,1.30
2023-05-06T09:51:52.698Z,2.30
2023-05-06T09:52:52.709Z,1.90
2023-05-06T09:53:52.689Z,2.30
2023-05-06T09:54:52.685Z,2.40
2023-05-06T09:55:52.662Z,1.80
2023-05-06T09:56:52.658Z,4.20
2023-05-06T09:57:52.643Z,1.90
2023-05-06T09:58:52.720Z,1.70
2023-05-06T09:59:52.678Z,1.90
2023-05-06T10:00:52.627Z,1.50
2023-05-06T10:18:50.663Z,1.90
2023-05-06T10:19:50.649Z,2.20
2023-05-06T10:20:50.676Z,2.30
2023-05-06T10:21:50.619Z,2.70
2023-05-06T10:22:50.591Z,2.60
2023-05-06T10:23:50.588Z,3.50
2023-05-06T10:24:50.579Z,1.80
2023-05-06T10:25:50.567Z,1.40
2023-05-06T10:26:50.576Z,3.80
2023-05-06T10:27:50.576Z,3.20
2023-05-06T10:28:50.530Z,1.80
2023-05-06T10:29:50.585Z,2.20
2023-05-06T10:30:50.555Z,2.50
2023-05-06T10:31:50.603Z,2.10
2023-05-06T10:32:50.518Z,3.70
2023-05-06T10:33:50.486Z,1.60
2023-05-06T10:34:50.468Z,1.50
2023-05-06T10:35:50.501Z,3.10
2023-05-06T10:36:50.471Z,3.10
2023-05-06T10:37:50.473Z,2.70
2023-05-06T10:38:50.432Z,2.90
2023-05-06T10:39:50.430Z,2.10
2023-05-06T10:40:50.452Z,2.30
2023-05-06T10:41:50.419Z,2.30
2023-05-06T10:42:50.428Z,2.70
2023-05-06T10:43:50.412Z,1.20
2023-05-06T10:44:50.406Z,3.20
2023-05-06T10:45:50.424Z,2.50
2023-05-06T10:46:50.361Z,3.00
2023-05-06T10:47:50.385Z,2.50
2023-05-06T10:48:50.331Z,3.30
2023-05-06T10:49:50.344Z,2.30
2023-05-06T10:50:50.345Z,1.60
2023-05-06T10:51:50.309Z,3.00
2023-05-06T10:52:50.360Z,1.60
2023-05-06T10:53:50.312Z,2.20
2023-05-06T10:54:50.410Z,3.50
2023-05-06T10:55:50.285Z,2.30
2023-05-06T10:56:50.290Z,2.80
2023-05-06T10:57:50.253Z,6.70
2023-05-06T10:58:50.260Z,2.20
2023-05-06T10:59:50.254Z,2.30
2023-05-06T11:00:50.243Z,2.00
2023-05-06T11:01:50.353Z,2.40
2023-05-06T11:02:50.259Z,2.80
2023-05-06T11:03:50.234Z,2.90
2023-05-06T11:04:50.201Z,2.50
2023-05-06T11:05:50.202Z,3.10
2023-05-06T11:06:50.196Z,4.70
2023-05-06T11:07:50.187Z,2.10
2023-05-06T11:08:50.163Z,2.20
2023-05-06T11:09:50.163Z,1.40
2023-05-06T11:10:50.165Z,2.40
2023-05-06T11:11:50.142Z,2.30
2023-05-06T11:12:50.229Z,2.00
2023-05-06T11:13:50.702Z,2.80
2023-05-06T11:14:50.093Z,1.70
2023-05-06T11:15:50.187Z,1.90
2023-05-06T11:16:50.150Z,1.90
2023-05-06T11:17:50.145Z,1.60
2023-05-06T11:18:50.040Z,3.50
2023-05-06T11:19:50.039Z,2.20
2023-05-06T11:20:50.043Z,1.80
2023-05-06T11:21:50.711Z,2.60
2023-05-06T11:22:50.058Z,1.80
2023-05-06T11:23:50.034Z,1.80
2023-05-06T11:24:50.059Z,1.60
2023-05-06T11:25:50.056Z,1.50
2023-05-06T11:26:50.113Z,2.10
2023-05-06T11:27:50.953Z,2.40
2023-05-06T11:28:50.002Z,3.20
2023-05-06T11:29:50.008Z,2.70
2023-05-06T11:30:50.094Z,2.70
2023-05-06T11:31:50.009Z,2.00
2023-05-06T11:32:50.057Z,2.60
2023-05-06T11:33:50.005Z,2.40
2023-05-06T11:34:49.998Z,2.40
2023-05-06T11:35:49.922Z,3.30
2023-05-06T11:36:49.953Z,3.10
2023-05-06T11:37:50.228Z,1.80
2023-05-06T11:38:50.032Z,1.80
2023-05-06T11:39:49.997Z,2.10
2023-05-06T11:40:49.974Z,1.70
2023-05-06T11:41:49.892Z,2.40
2023-05-06T11:42:49.860Z,2.30
2023-05-06T11:43:50.068Z,2.10
2023-05-06T11:44:50.091Z,1.80
2023-05-06T11:45:49.943Z,3.50
2023-05-06T11:46:49.971Z,3.50
2023-05-06T11:47:49.949Z,3.20
2023-05-06T11:48:49.831Z,1.70
2023-05-06T11:49:50.138Z,1.40
2023-05-06T11:50:49.961Z,2.10
2023-05-06T11:51:49.764Z,1.70
2023-05-06T11:52:49.770Z,3.20
2023-05-06T11:53:49.834Z,3.70
2023-05-06T11:54:50.278Z,1.80
2023-05-06T11:55:49.792Z,3.40
2023-05-06T11:56:49.770Z,1.60
2023-05-06T11:57:49.757Z,3.80
2023-05-06T11:58:49.705Z,1.50
2023-05-06T11:59:49.791Z,2.20
2023-05-06T12:00:51.217Z,2.60
2023-05-06T12:01:49.622Z,1.50
2023-05-06T12:02:49.807Z,2.20
2023-05-06T12:03:49.838Z,2.40
2023-05-06T12:04:49.859Z,3.60
2023-05-06T12:05:49.648Z,1.60
2023-05-06T12:06:49.754Z,4.60
2023-05-06T12:07:49.658Z,1.40
2023-05-06T12:08:49.573Z,2.00
2023-05-06T12:09:49.742Z,1.80
2023-05-06T12:10:49.542Z,2.50
2023-05-06T12:11:49.556Z,1.80
2023-05-06T12:12:49.603Z,1.60
2023-05-06T12:13:49.545Z,2.60
2023-05-06T12:14:49.513Z,2.10
2023-05-06T12:15:49.550Z,1.60
2023-05-06T12:16:49.537Z,1.50
2023-05-06T12:17:49.503Z,2.00
2023-05-06T12:18:49.494Z,1.10
2023-05-06T12:19:49.481Z,2.10
2023-05-06T12:20:49.437Z,1.20
2023-05-06T12:21:49.448Z,1.10
2023-05-06T12:22:49.486Z,1.50
2023-05-06T12:23:49.476Z,2.80
2023-05-06T12:24:49.445Z,2.30
2023-05-06T12:25:49.467Z,1.70
2023-05-06T12:26:49.389Z,2.80
2023-05-06T12:27:49.385Z,2.30
2023-05-06T12:28:49.366Z,2.00
2023-05-06T12:29:49.353Z,1.30
2023-05-06T12:30:49.348Z,1.30
2023-05-06T12:31:49.371Z,1.60
2023-05-06T12:32:49.382Z,0.70
2023-05-06T12:33:49.312Z,4.10
2023-05-06T12:34:49.352Z,5.50
2023-05-06T12:35:49.296Z,1.40
2023-05-06T12:36:49.284Z,2.50
2023-05-06T12:37:49.295Z,2.20
2023-05-06T12:38:49.260Z,1.90
2023-05-06T12:39:49.353Z,2.10
2023-05-06T12:40:49.239Z,1.90
2023-05-06T12:41:49.233Z,2.20
2023-05-06T12:42:49.247Z,1.60
2023-05-06T12:43:49.202Z,1.50
2023-05-06T12:44:49.205Z,2.30
2023-05-06T12:45:49.198Z,2.70
2023-05-06T12:46:49.189Z,1.40
2023-05-06T12:47:49.219Z,3.10
2023-05-06T12:48:49.181Z,3.00
2023-05-06T12:49:49.154Z,1.60
2023-05-06T12:50:49.185Z,1.40
2023-05-06T12:51:49.119Z,1.30
2023-05-06T12:52:49.164Z,1.10
2023-05-06T12:53:49.138Z,2.00
2023-05-06T12:54:49.125Z,0.90
2023-05-06T12:55:49.100Z,0.80
2023-05-06T12:56:49.073Z,3.20
2023-05-06T12:57:49.073Z,1.30
2023-05-06T12:58:49.081Z,2.50
2023-05-06T12:59:49.048Z,0.90
2023-05-06T13:00:49.140Z,2.60
2023-05-06T13:01:49.025Z,0.90
2023-05-06T13:02:49.086Z,3.70
2023-05-06T13:03:49.045Z,1.60
2023-05-06T13:04:49.001Z,2.50
2023-05-06T13:05:49.005Z,1.00
2023-05-06T13:06:49.007Z,2.10
2023-05-06T13:07:48.954Z,4.20
2023-05-06T13:08:48.969Z,2.90
2023-05-06T13:09:48.938Z,1.40
2023-05-06T13:10:48.931Z,2.50
2023-05-06T13:11:48.971Z,3.00
2023-05-06T13:12:48.929Z,1.10
2023-05-06T13:13:48.911Z,3.00
2023-05-06T13:14:48.899Z,1.50
2023-05-06T13:15:48.860Z,1.50
2023-05-06T13:16:48.954Z,1.20
2023-05-06T13:17:48.868Z,2.40
2023-05-06T13:18:49.403Z,1.40
2023-05-06T13:19:48.892Z,2.40
2023-05-06T13:20:48.855Z,1.80
2023-05-06T13:21:48.888Z,2.30
2023-05-06T13:22:54.910Z,2.60
2023-05-06T13:23:49.822Z,2.70